sensor_id;sensor_type;location;lat;lon;timestamp;temperature;humidity
46340;DHT22;47273;49.274;8.708;2023-02-18T05:01:47;12.10;99.90
46340;DHT22;47273;49.274;8.708;2023-02-18T05:04:13;12.10;99.90
46340;DHT22;47273;49.274;8.708;2023-02-18T05:06:38;12.10;99.90
46340;DHT22;47273;49.274;8.708;2023-02-18T05:09:05;12.10;99.90
46340;DHT22;47273;49.274;8.708;2023-02-18T05:11:30;12.00;99.90
46340;DHT22;47273;49.274;8.708;2023-02-18T05:13:56;12.10;99.90
46340;DHT22;47273;49.274;8.708;2023-02-18T05:16:22;12.00;99.90
46340;DHT22;47273;49.274;8.708;2023-02-18T05:18:47;12.00;99.90
46340;DHT22;47273;49.274;8.708;2023-02-18T05:21:13;12.00;99.90
46340;DHT22;47273;49.274;8.708;2023-02-18T05:23:38;12.10;99.90
46340;DHT22;47273;49.274;8.708;2023-02-18T05:26:04;12.00;99.90
46340;DHT22;47273;49.274;8.708;2023-02-18T05:28:30;12.10;99.90
46340;DHT22;47273;49.274;8.708;2023-02-18T05:30:55;12.10;99.90
46340;DHT22;47273;49.274;8.708;2023-02-18T05:33:21;12.10;99.90
46340;DHT22;47273;49.274;8.708;2023-02-18T05:35:47;12.10;99.90
46340;DHT22;47273;49.274;8.708;2023-02-18T05:38:13;12.10;99.90
46340;DHT22;47273;49.274;8.708;2023-02-18T05:40:39;12.10;99.90
46340;DHT22;47273;49.274;8.708;2023-02-18T05:43:04;12.00;99.90
46340;DHT22;47273;49.274;8.708;2023-02-18T05:45:30;12.00;99.90
46340;DHT22;47273;49.274;8.708;2023-02-18T05:47:56;12.10;99.90
46340;DHT22;47273;49.274;8.708;2023-02-18T05:50:21;12.10;99.90
46340;DHT22;47273;49.274;8.708;2023-02-18T05:52:47;12.10;99.90
46340;DHT22;47273;49.274;8.708;2023-02-18T05:55:13;12.10;99.90
46340;DHT22;47273;49.274;8.708;2023-02-18T05:57:39;12.00;99.90
46340;DHT22;47273;49.274;8.708;2023-02-18T06:00:05;12.00;99.90
46340;DHT22;47273;49.274;8.708;2023-02-18T06:02:31;12.00;99.90
46340;DHT22;47273;49.274;8.708;2023-02-18T06:04:57;12.00;99.90
46340;DHT22;47273;49.274;8.708;2023-02-18T06:07:23;12.00;99.90
46340;DHT22;47273;49.274;8.708;2023-02-18T06:09:48;12.00;99.90
46340;DHT22;47273;49.274;8.708;2023-02-18T06:12:14;12.00;99.90
46340;DHT22;47273;49.274;8.708;2023-02-18T06:14:40;12.00;99.90
46340;DHT22;47273;49.274;8.708;2023-02-18T06:17:10;12.00;99.90
46340;DHT22;47273;49.274;8.708;2023-02-18T06:19:36;12.00;99.90
46340;DHT22;47273;49.274;8.708;2023-02-18T06:22:02;12.00;99.90
46340;DHT22;47273;49.274;8.708;2023-02-18T06:24:28;12.00;99.90
46340;DHT22;47273;49.274;8.708;2023-02-18T06:26:54;12.00;99.90
46340;DHT22;47273;49.274;8.708;2023-02-18T06:29:19;12.10;99.90
46340;DHT22;47273;49.274;8.708;2023-02-18T06:31:45;12.00;99.90
46340;DHT22;47273;49.274;8.708;2023-02-18T06:34:11;12.00;99.90
46340;DHT22;47273;49.274;8.708;2023-02-18T06:36:36;12.10;99.90
46340;DHT22;47273;49.274;8.708;2023-02-18T06:39:04;12.10;99.90
46340;DHT22;47273;49.274;8.708;2023-02-18T06:41:30;12.10;99.90
46340;DHT22;47273;49.274;8.708;2023-02-18T06:43:55;12.00;99.90
46340;DHT22;47273;49.274;8.708;2023-02-18T06:46:21;12.00;99.90
46340;DHT22;47273;49.274;8.708;2023-02-18T06:48:47;12.10;99.90
46340;DHT22;47273;49.274;8.708;2023-02-18T06:51:13;12.10;99.90
46340;DHT22;47273;49.274;8.708;2023-02-18T06:53:39;12.10;99.90
46340;DHT22;47273;49.274;8.708;2023-02-18T06:56:04;12.10;99.90
46340;DHT22;47273;49.274;8.708;2023-02-18T06:58:30;12.10;99.90
46340;DHT22;47273;49.274;8.708;2023-02-18T07:00:56;12.00;99.90
46340;DHT22;47273;49.274;8.708;2023-02-18T07:03:21;12.10;99.90
46340;DHT22;47273;49.274;8.708;2023-02-18T07:05:47;12.10;99.90
46340;DHT22;47273;49.274;8.708;2023-02-18T07:08:12;12.10;99.90
46340;DHT22;47273;49.274;8.708;2023-02-18T07:10:38;12.10;99.90
46340;DHT22;47273;49.274;8.708;2023-02-18T07:13:04;12.10;99.90
46340;DHT22;47273;49.274;8.708;2023-02-18T07:15:30;12.10;99.90
46340;DHT22;47273;49.274;8.708;2023-02-18T07:17:55;12.10;99.90
46340;DHT22;47273;49.274;8.708;2023-02-18T07:20:22;12.10;99.90
46340;DHT22;47273;49.274;8.708;2023-02-18T07:22:47;12.10;99.90
46340;DHT22;47273;49.274;8.708;2023-02-18T07:25:13;12.10;99.90
46340;DHT22;47273;49.274;8.708;2023-02-18T07:27:39;12.20;99.90
46340;DHT22;47273;49.274;8.708;2023-02-18T07:30:06;12.10;99.90
46340;DHT22;47273;49.274;8.708;2023-02-18T07:32:31;12.20;99.90
46340;DHT22;47273;49.274;8.708;2023-02-18T07:34:57;12.20;99.90
46340;DHT22;47273;49.274;8.708;2023-02-18T07:37:23;12.20;99.90
46340;DHT22;47273;49.274;8.708;2023-02-18T07:39:48;12.20;99.90
46340;DHT22;47273;49.274;8.708;2023-02-18T07:42:14;12.20;99.90
46340;DHT22;47273;49.274;8.708;2023-02-18T07:44:40;12.20;99.90
46340;DHT22;47273;49.274;8.708;2023-02-18T07:47:08;12.20;99.90
46340;DHT22;47273;49.274;8.708;2023-02-18T07:49:35;12.20;99.90
46340;DHT22;47273;49.274;8.708;2023-02-18T07:52:00;12.20;99.90
46340;DHT22;47273;49.274;8.708;2023-02-18T07:54:26;12.30;99.90
46340;DHT22;47273;49.274;8.708;2023-02-18T07:56:53;12.30;99.90
46340;DHT22;47273;49.274;8.708;2023-02-18T07:59:19;12.30;99.90
46340;DHT22;47273;49.274;8.708;2023-02-18T08:01:44;12.40;99.90
46340;DHT22;47273;49.274;8.708;2023-02-18T08:04:10;12.40;99.90
46340;DHT22;47273;49.274;8.708;2023-02-18T08:06:38;12.40;99.90
46340;DHT22;47273;49.274;8.708;2023-02-18T08:09:05;12.50;99.90
46340;DHT22;47273;49.274;8.708;2023-02-18T08:11:31;12.50;99.90
46340;DHT22;47273;49.274;8.708;2023-02-18T08:13:56;12.50;99.90
46340;DHT22;47273;49.274;8.708;2023-02-18T08:16:22;12.50;99.90
46340;DHT22;47273;49.274;8.708;2023-02-18T08:18:49;12.50;99.90
46340;DHT22;47273;49.274;8.708;2023-02-18T08:21:16;12.50;99.90
46340;DHT22;47273;49.274;8.708;2023-02-18T08:23:42;12.50;99.90
46340;DHT22;47273;49.274;8.708;2023-02-18T08:26:08;12.60;99.90
46340;DHT22;47273;49.274;8.708;2023-02-18T08:28:34;12.60;99.90
46340;DHT22;47273;49.274;8.708;2023-02-18T08:31:00;12.70;99.90
46340;DHT22;47273;49.274;8.708;2023-02-18T08:33:26;12.70;99.90
46340;DHT22;47273;49.274;8.708;2023-02-18T08:35:53;12.70;99.90
46340;DHT22;47273;49.274;8.708;2023-02-18T08:38:20;12.70;99.90
46340;DHT22;47273;49.274;8.708;2023-02-18T08:40:45;12.70;99.90
46340;DHT22;47273;49.274;8.708;2023-02-18T08:43:12;12.70;99.90
46340;DHT22;47273;49.274;8.708;2023-02-18T08:45:38;12.70;99.90
46340;DHT22;47273;49.274;8.708;2023-02-18T08:48:06;12.70;99.90
46340;DHT22;47273;49.274;8.708;2023-02-18T08:50:32;12.70;99.90
46340;DHT22;47273;49.274;8.708;2023-02-18T08:52:58;12.80;99.90
46340;DHT22;47273;49.274;8.708;2023-02-18T08:55:29;12.80;99.90
46340;DHT22;47273;49.274;8.708;2023-02-18T08:57:54;12.80;99.90
46340;DHT22;47273;49.274;8.708;2023-02-18T09:00:20;12.80;99.90
46340;DHT22;47273;49.274;8.708;2023-02-18T09:02:46;12.80;99.90
46340;DHT22;47273;49.274;8.708;2023-02-18T09:05:12;12.90;99.90
46340;DHT22;47273;49.274;8.708;2023-02-18T09:07:39;12.90;99.90
46340;DHT22;47273;49.274;8.708;2023-02-18T09:10:05;13.00;99.90
46340;DHT22;47273;49.274;8.708;2023-02-18T09:12:32;13.00;99.90
46340;DHT22;47273;49.274;8.708;2023-02-18T09:14:58;13.00;99.90
46340;DHT22;47273;49.274;8.708;2023-02-18T09:17:23;13.00;99.90
46340;DHT22;47273;49.274;8.708;2023-02-18T09:19:49;13.10;99.90
46340;DHT22;47273;49.274;8.708;2023-02-18T09:22:15;13.10;99.90
46340;DHT22;47273;49.274;8.708;2023-02-18T09:24:41;13.10;99.90
46340;DHT22;47273;49.274;8.708;2023-02-18T09:27:08;13.10;99.90
46340;DHT22;47273;49.274;8.708;2023-02-18T09:29:37;13.20;99.90
46340;DHT22;47273;49.274;8.708;2023-02-18T09:32:05;13.20;99.90
46340;DHT22;47273;49.274;8.708;2023-02-18T09:34:31;13.20;99.90
46340;DHT22;47273;49.274;8.708;2023-02-18T09:36:57;13.20;99.90
46340;DHT22;47273;49.274;8.708;2023-02-18T09:39:23;13.30;99.90
46340;DHT22;47273;49.274;8.708;2023-02-18T09:42:00;13.30;99.90
46340;DHT22;47273;49.274;8.708;2023-02-18T09:44:40;13.30;99.90
46340;DHT22;47273;49.274;8.708;2023-02-18T09:47:22;13.40;99.90
46340;DHT22;47273;49.274;8.708;2023-02-18T09:49:55;13.30;99.90
46340;DHT22;47273;49.274;8.708;2023-02-18T09:54:51;13.40;99.90
46340;DHT22;47273;49.274;8.708;2023-02-18T09:57:41;13.40;99.90
46340;DHT22;47273;49.274;8.708;2023-02-18T10:00:19;13.40;99.90
46340;DHT22;47273;49.274;8.708;2023-02-18T10:02:58;13.40;99.90
46340;DHT22;47273;49.274;8.708;2023-02-18T10:05:26;13.50;99.90
46340;DHT22;47273;49.274;8.708;2023-02-18T10:07:59;13.50;99.90
46340;DHT22;47273;49.274;8.708;2023-02-18T10:10:41;13.50;99.90
46340;DHT22;47273;49.274;8.708;2023-02-18T10:13:16;13.50;99.90
46340;DHT22;47273;49.274;8.708;2023-02-18T10:15:43;13.60;99.90
46340;DHT22;47273;49.274;8.708;2023-02-18T10:18:30;13.60;99.90
46340;DHT22;47273;49.274;8.708;2023-02-18T10:21:06;13.60;99.90
46340;DHT22;47273;49.274;8.708;2023-02-18T10:23:36;13.60;99.90
46340;DHT22;47273;49.274;8.708;2023-02-18T10:26:06;13.70;99.90
46340;DHT22;47273;49.274;8.708;2023-02-18T10:28:34;13.70;99.90
46340;DHT22;47273;49.274;8.708;2023-02-18T10:31:14;13.70;99.90
46340;DHT22;47273;49.274;8.708;2023-02-18T10:39:31;13.70;99.90
46340;DHT22;47273;49.274;8.708;2023-02-18T10:52:40;13.80;99.90
46340;DHT22;47273;49.274;8.708;2023-02-18T10:55:11;13.80;99.90
46340;DHT22;47273;49.274;8.708;2023-02-18T10:57:51;13.80;99.90
46340;DHT22;47273;49.274;8.708;2023-02-18T11:00:24;13.80;99.90
46340;DHT22;47273;49.274;8.708;2023-02-18T11:03:12;13.80;99.90
46340;DHT22;47273;49.274;8.708;2023-02-18T11:05:40;13.90;99.90
46340;DHT22;47273;49.274;8.708;2023-02-18T11:08:13;13.90;99.90
46340;DHT22;47273;49.274;8.708;2023-02-18T11:10:43;14.00;99.90
46340;DHT22;47273;49.274;8.708;2023-02-18T11:13:12;14.10;99.90
46340;DHT22;47273;49.274;8.708;2023-02-18T11:16:03;14.00;99.90
46340;DHT22;47273;49.274;8.708;2023-02-18T11:18:42;14.00;99.90
46340;DHT22;47273;49.274;8.708;2023-02-18T11:21:29;14.00;99.90
46340;DHT22;47273;49.274;8.708;2023-02-18T11:23:56;13.90;99.90
46340;DHT22;47273;49.274;8.708;2023-02-18T11:26:41;13.80;99.90
46340;DHT22;47273;49.274;8.708;2023-02-18T11:29:19;13.90;99.90
46340;DHT22;47273;49.274;8.708;2023-02-18T11:31:48;13.90;99.90
46340;DHT22;47273;49.274;8.708;2023-02-18T11:34:25;13.80;99.90
46340;DHT22;47273;49.274;8.708;2023-02-18T11:36:52;13.90;99.90
46340;DHT22;47273;49.274;8.708;2023-02-18T11:39:26;13.90;99.90
46340;DHT22;47273;49.274;8.708;2023-02-18T11:44:37;13.90;99.90
46340;DHT22;47273;49.274;8.708;2023-02-18T11:47:18;13.90;99.50
46340;DHT22;47273;49.274;8.708;2023-02-18T11:49:59;13.90;99.20
46340;DHT22;47273;49.274;8.708;2023-02-18T11:52:27;13.90;99.20
46340;DHT22;47273;49.274;8.708;2023-02-18T11:55:19;14.00;99.20
46340;DHT22;47273;49.274;8.708;2023-02-18T11:58:01;14.00;98.90
46340;DHT22;47273;49.274;8.708;2023-02-18T12:00:42;14.00;98.60
46340;DHT22;47273;49.274;8.708;2023-02-18T12:06:19;14.20;97.50
46340;DHT22;47273;49.274;8.708;2023-02-18T12:09:00;14.20;97.10
46340;DHT22;47273;49.274;8.708;2023-02-18T12:11:36;14.50;96.60
46340;DHT22;47273;49.274;8.708;2023-02-18T12:14:13;14.40;95.40
46340;DHT22;47273;49.274;8.708;2023-02-18T12:28:00;14.40;94.90
46340;DHT22;47273;49.274;8.708;2023-02-18T12:32:57;14.40;95.20
46340;DHT22;47273;49.274;8.708;2023-02-18T12:41:42;14.30;95.60
46340;DHT22;47273;49.274;8.708;2023-02-18T12:49:25;14.90;94.60
46340;DHT22;47273;49.274;8.708;2023-02-18T12:58:18;14.70;94.90
46340;DHT22;47273;49.274;8.708;2023-02-18T13:00:50;14.70;95.20
46340;DHT22;47273;49.274;8.708;2023-02-18T13:03:31;14.70;95.50
46340;DHT22;47273;49.274;8.708;2023-02-18T13:14:28;14.60;96.00
46340;DHT22;47273;49.274;8.708;2023-02-18T13:16:57;14.80;95.50
46340;DHT22;47273;49.274;8.708;2023-02-18T13:19:26;14.80;95.00
46340;DHT22;47273;49.274;8.708;2023-02-18T13:21:56;14.90;94.70
46340;DHT22;47273;49.274;8.708;2023-02-18T13:24:29;14.80;94.80
46340;DHT22;47273;49.274;8.708;2023-02-18T13:27:18;14.80;94.70
46340;DHT22;47273;49.274;8.708;2023-02-18T13:29:47;14.80;94.70
46340;DHT22;47273;49.274;8.708;2023-02-18T13:40:29;14.60;93.80
46340;DHT22;47273;49.274;8.708;2023-02-18T13:45:43;14.60;93.90
46340;DHT22;47273;49.274;8.708;2023-02-18T13:48:27;14.60;93.80
46340;DHT22;47273;49.274;8.708;2023-02-18T13:51:03;14.60;93.60
46340;DHT22;47273;49.274;8.708;2023-02-18T13:53:33;14.50;93.30
46340;DHT22;47273;49.274;8.708;2023-02-18T13:56:10;14.50;93.10
46340;DHT22;47273;49.274;8.708;2023-02-18T14:01:49;14.40;93.30
46340;DHT22;47273;49.274;8.708;2023-02-18T14:04:52;14.40;93.20
46340;DHT22;47273;49.274;8.708;2023-02-18T14:25:52;14.40;93.70
46340;DHT22;47273;49.274;8.708;2023-02-18T14:28:40;14.40;93.50
46340;DHT22;47273;49.274;8.708;2023-02-18T14:34:06;14.40;93.50
46340;DHT22;47273;49.274;8.708;2023-02-18T14:48:00;14.10;92.70
46340;DHT22;47273;49.274;8.708;2023-02-18T14:50:30;14.10;93.20
46340;DHT22;47273;49.274;8.708;2023-02-18T14:53:01;14.00;92.70
46340;DHT22;47273;49.274;8.708;2023-02-18T14:55:34;14.00;93.10
46340;DHT22;47273;49.274;8.708;2023-02-18T14:58:40;14.00;93.40
46340;DHT22;47273;49.274;8.708;2023-02-18T15:03:40;13.90;93.50
46340;DHT22;47273;49.274;8.708;2023-02-18T15:06:22;13.80;93.60
46340;DHT22;47273;49.274;8.708;2023-02-18T15:08:48;13.80;93.90
46340;DHT22;47273;49.274;8.708;2023-02-18T15:11:15;13.80;93.60
46340;DHT22;47273;49.274;8.708;2023-02-18T15:13:43;13.80;93.80
46340;DHT22;47273;49.274;8.708;2023-02-18T15:16:39;13.70;93.40
46340;DHT22;47273;49.274;8.708;2023-02-18T15:19:11;13.70;93.80
46340;DHT22;47273;49.274;8.708;2023-02-18T15:21:43;13.70;94.10
46340;DHT22;47273;49.274;8.708;2023-02-18T15:24:33;13.60;94.00
46340;DHT22;47273;49.274;8.708;2023-02-18T15:27:04;13.60;93.80
46340;DHT22;47273;49.274;8.708;2023-02-18T15:29:35;13.60;93.70
46340;DHT22;47273;49.274;8.708;2023-02-18T15:34:39;13.50;93.90
46340;DHT22;47273;49.274;8.708;2023-02-18T15:37:08;13.50;94.10
46340;DHT22;47273;49.274;8.708;2023-02-18T15:39:35;13.50;94.10
46340;DHT22;47273;49.274;8.708;2023-02-18T15:42:30;13.50;94.10
46340;DHT22;47273;49.274;8.708;2023-02-18T15:47:27;13.40;94.50
46340;DHT22;47273;49.274;8.708;2023-02-18T15:49:55;13.40;94.10
46340;DHT22;47273;49.274;8.708;2023-02-18T15:52:31;13.30;94.10
46340;DHT22;47273;49.274;8.708;2023-02-18T15:55:02;13.30;94.40
46340;DHT22;47273;49.274;8.708;2023-02-18T15:57:29;13.30;94.50
46340;DHT22;47273;49.274;8.708;2023-02-18T16:00:16;13.30;94.70
46340;DHT22;47273;49.274;8.708;2023-02-18T16:03:21;13.20;94.50
46340;DHT22;47273;49.274;8.708;2023-02-18T16:05:47;13.20;94.70
46340;DHT22;47273;49.274;8.708;2023-02-18T16:08:23;13.20;94.90
46340;DHT22;47273;49.274;8.708;2023-02-18T16:10:55;13.10;94.80
46340;DHT22;47273;49.274;8.708;2023-02-18T16:13:22;13.10;94.90
46340;DHT22;47273;49.274;8.708;2023-02-18T16:15:49;13.10;95.10
46340;DHT22;47273;49.274;8.708;2023-02-18T16:21:05;13.10;95.10
46340;DHT22;47273;49.274;8.708;2023-02-18T16:23:42;13.10;95.30
46340;DHT22;47273;49.274;8.708;2023-02-18T16:29:13;13.00;95.30
46340;DHT22;47273;49.274;8.708;2023-02-18T16:31:39;13.00;95.20
46340;DHT22;47273;49.274;8.708;2023-02-18T16:34:05;13.00;95.30
46340;DHT22;47273;49.274;8.708;2023-02-18T16:36:31;12.90;95.30
46340;DHT22;47273;49.274;8.708;2023-02-18T16:38:57;12.90;95.30
46340;DHT22;47273;49.274;8.708;2023-02-18T16:41:23;12.80;95.40
46340;DHT22;47273;49.274;8.708;2023-02-18T16:43:49;12.80;95.70
46340;DHT22;47273;49.274;8.708;2023-02-18T16:46:17;12.80;95.60
46340;DHT22;47273;49.274;8.708;2023-02-18T16:48:45;12.80;95.70
46340;DHT22;47273;49.274;8.708;2023-02-18T16:53:45;12.80;95.80
46340;DHT22;47273;49.274;8.708;2023-02-18T16:56:23;12.80;95.60
46340;DHT22;47273;49.274;8.708;2023-02-18T16:58:49;12.70;95.80
46340;DHT22;47273;49.274;8.708;2023-02-18T17:01:23;12.70;95.90
46340;DHT22;47273;49.274;8.708;2023-02-18T17:03:51;12.70;96.00
46340;DHT22;47273;49.274;8.708;2023-02-18T17:06:17;12.70;96.10
46340;DHT22;47273;49.274;8.708;2023-02-18T17:08:43;12.70;96.10
46340;DHT22;47273;49.274;8.708;2023-02-18T17:11:22;12.70;96.10
46340;DHT22;47273;49.274;8.708;2023-02-18T17:13:50;12.60;96.10
46340;DHT22;47273;49.274;8.708;2023-02-18T17:16:17;12.60;96.20
46340;DHT22;47273;49.274;8.708;2023-02-18T17:18:43;12.60;96.40
46340;DHT22;47273;49.274;8.708;2023-02-18T17:21:12;12.60;96.30
46340;DHT22;47273;49.274;8.708;2023-02-18T17:23:38;12.60;96.50
46340;DHT22;47273;49.274;8.708;2023-02-18T17:26:08;12.60;96.60
46340;DHT22;47273;49.274;8.708;2023-02-18T17:28:34;12.50;96.60
46340;DHT22;47273;49.274;8.708;2023-02-18T17:31:00;12.50;96.70
46340;DHT22;47273;49.274;8.708;2023-02-18T17:33:25;12.50;96.70
46340;DHT22;47273;49.274;8.708;2023-02-18T17:35:51;12.50;96.80
46340;DHT22;47273;49.274;8.708;2023-02-18T17:38:17;12.50;96.90
46340;DHT22;47273;49.274;8.708;2023-02-18T17:40:43;12.50;97.00
46340;DHT22;47273;49.274;8.708;2023-02-18T17:43:11;12.40;97.00
46340;DHT22;47273;49.274;8.708;2023-02-18T17:45:50;12.40;97.10
46340;DHT22;47273;49.274;8.708;2023-02-18T17:48:16;12.40;97.00
46340;DHT22;47273;49.274;8.708;2023-02-18T17:50:42;12.40;97.20
46340;DHT22;47273;49.274;8.708;2023-02-18T17:53:12;12.40;97.30
46340;DHT22;47273;49.274;8.708;2023-02-18T17:55:39;12.40;97.30
46340;DHT22;47273;49.274;8.708;2023-02-18T17:58:05;12.30;97.30
46340;DHT22;47273;49.274;8.708;2023-02-18T18:00:37;12.30;97.40
46340;DHT22;47273;49.274;8.708;2023-02-18T18:03:03;12.30;97.40
46340;DHT22;47273;49.274;8.708;2023-02-18T18:05:39;12.30;97.50
46340;DHT22;47273;49.274;8.708;2023-02-18T18:08:06;12.30;97.60
46340;DHT22;47273;49.274;8.708;2023-02-18T18:10:34;12.30;97.80
46340;DHT22;47273;49.274;8.708;2023-02-18T18:13:04;12.30;97.80
46340;DHT22;47273;49.274;8.708;2023-02-18T18:15:34;12.20;97.80
46340;DHT22;47273;49.274;8.708;2023-02-18T18:18:00;12.20;98.00
46340;DHT22;47273;49.274;8.708;2023-02-18T18:20:28;12.20;97.90
46340;DHT22;47273;49.274;8.708;2023-02-18T18:22:56;12.20;98.10
46340;DHT22;47273;49.274;8.708;2023-02-18T18:25:28;12.20;98.20
46340;DHT22;47273;49.274;8.708;2023-02-18T18:27:54;12.20;98.30
46340;DHT22;47273;49.274;8.708;2023-02-18T18:30:25;12.10;98.30
46340;DHT22;47273;49.274;8.708;2023-02-18T18:32:51;12.20;98.40
46340;DHT22;47273;49.274;8.708;2023-02-18T18:35:28;12.10;98.30
46340;DHT22;47273;49.274;8.708;2023-02-18T18:37:55;12.10;98.50
46340;DHT22;47273;49.274;8.708;2023-02-18T18:40:24;12.10;98.50
46340;DHT22;47273;49.274;8.708;2023-02-18T18:42:51;12.10;98.60
46340;DHT22;47273;49.274;8.708;2023-02-18T18:45:29;12.10;98.80
46340;DHT22;47273;49.274;8.708;2023-02-18T18:47:56;12.10;98.80
46340;DHT22;47273;49.274;8.708;2023-02-18T18:50:27;12.10;98.90
46340;DHT22;47273;49.274;8.708;2023-02-18T18:52:53;12.00;98.90
46340;DHT22;47273;49.274;8.708;2023-02-18T18:57:45;12.00;99.00
46340;DHT22;47273;49.274;8.708;2023-02-18T19:00:12;12.00;99.10
46340;DHT22;47273;49.274;8.708;2023-02-18T19:02:38;12.00;99.20
46340;DHT22;47273;49.274;8.708;2023-02-18T19:05:05;12.00;99.20
46340;DHT22;47273;49.274;8.708;2023-02-18T19:07:31;12.00;99.50
46340;DHT22;47273;49.274;8.708;2023-02-18T19:09:57;12.00;99.30
46340;DHT22;47273;49.274;8.708;2023-02-18T19:12:22;12.00;99.40
46340;DHT22;47273;49.274;8.708;2023-02-18T19:14:48;11.90;99.40
46340;DHT22;47273;49.274;8.708;2023-02-18T19:17:14;11.90;99.50
46340;DHT22;47273;49.274;8.708;2023-02-18T19:19:39;11.90;99.60
46340;DHT22;47273;49.274;8.708;2023-02-18T19:22:05;11.90;99.70
46340;DHT22;47273;49.274;8.708;2023-02-18T19:24:31;11.90;99.70
46340;DHT22;47273;49.274;8.708;2023-02-18T19:26:56;11.90;99.80
46340;DHT22;47273;49.274;8.708;2023-02-18T19:29:22;11.90;99.80
46340;DHT22;47273;49.274;8.708;2023-02-18T19:31:49;11.80;99.90
46340;DHT22;47273;49.274;8.708;2023-02-18T19:34:15;11.80;99.90
46340;DHT22;47273;49.274;8.708;2023-02-18T19:36:41;11.80;99.90
46340;DHT22;47273;49.274;8.708;2023-02-18T19:39:09;11.70;99.90
46340;DHT22;47273;49.274;8.708;2023-02-18T19:41:35;11.70;99.90
46340;DHT22;47273;49.274;8.708;2023-02-18T19:44:00;11.70;99.90
46340;DHT22;47273;49.274;8.708;2023-02-18T19:46:26;11.70;99.90
46340;DHT22;47273;49.274;8.708;2023-02-18T19:48:51;11.70;99.90
46340;DHT22;47273;49.274;8.708;2023-02-18T19:51:19;11.70;99.90
46340;DHT22;47273;49.274;8.708;2023-02-18T19:53:45;11.70;99.90
46340;DHT22;47273;49.274;8.708;2023-02-18T19:56:11;11.70;99.90
46340;DHT22;47273;49.274;8.708;2023-02-18T19:58:37;11.60;99.90
46340;DHT22;47273;49.274;8.708;2023-02-18T20:01:10;11.60;99.90
46340;DHT22;47273;49.274;8.708;2023-02-18T20:03:36;11.70;99.90
46340;DHT22;47273;49.274;8.708;2023-02-18T20:06:02;11.70;99.90
46340;DHT22;47273;49.274;8.708;2023-02-18T20:08:29;11.60;99.90
46340;DHT22;47273;49.274;8.708;2023-02-18T20:10:56;11.60;99.90
46340;DHT22;47273;49.274;8.708;2023-02-18T20:13:22;11.60;99.90
46340;DHT22;47273;49.274;8.708;2023-02-18T20:15:47;11.60;99.90
46340;DHT22;47273;49.274;8.708;2023-02-18T20:18:13;11.50;99.90
46340;DHT22;47273;49.274;8.708;2023-02-18T20:20:39;11.50;99.90
46340;DHT22;47273;49.274;8.708;2023-02-18T20:23:04;11.50;99.90
46340;DHT22;47273;49.274;8.708;2023-02-18T20:25:30;11.60;99.90
46340;DHT22;47273;49.274;8.708;2023-02-18T20:27:55;11.60;99.90
46340;DHT22;47273;49.274;8.708;2023-02-18T20:30:21;11.60;99.90
46340;DHT22;47273;49.274;8.708;2023-02-18T20:32:47;11.50;99.90
46340;DHT22;47273;49.274;8.708;2023-02-18T20:35:12;11.60;99.90
46340;DHT22;47273;49.274;8.708;2023-02-18T20:37:38;11.60;99.90
46340;DHT22;47273;49.274;8.708;2023-02-18T20:40:04;11.60;99.90
46340;DHT22;47273;49.274;8.708;2023-02-18T20:42:30;11.60;99.90
46340;DHT22;47273;49.274;8.708;2023-02-18T20:44:56;11.50;99.90
46340;DHT22;47273;49.274;8.708;2023-02-18T20:47:21;11.50;99.90
46340;DHT22;47273;49.274;8.708;2023-02-18T20:49:47;11.50;99.90
46340;DHT22;47273;49.274;8.708;2023-02-18T20:52:13;11.50;99.90
46340;DHT22;47273;49.274;8.708;2023-02-18T20:54:38;11.50;99.90
46340;DHT22;47273;49.274;8.708;2023-02-18T20:57:04;11.50;99.90
46340;DHT22;47273;49.274;8.708;2023-02-18T20:59:29;11.50;99.90
46340;DHT22;47273;49.274;8.708;2023-02-18T21:01:57;11.50;99.90
46340;DHT22;47273;49.274;8.708;2023-02-18T21:04:23;11.50;99.90
46340;DHT22;47273;49.274;8.708;2023-02-18T21:06:48;11.50;99.90
46340;DHT22;47273;49.274;8.708;2023-02-18T21:09:15;11.50;99.90
46340;DHT22;47273;49.274;8.708;2023-02-18T21:11:42;11.50;99.90
46340;DHT22;47273;49.274;8.708;2023-02-18T21:14:08;11.50;99.90
46340;DHT22;47273;49.274;8.708;2023-02-18T21:16:34;11.50;99.90
46340;DHT22;47273;49.274;8.708;2023-02-18T21:19:04;11.40;99.90
46340;DHT22;47273;49.274;8.708;2023-02-18T21:21:30;11.40;99.90
46340;DHT22;47273;49.274;8.708;2023-02-18T21:23:56;11.40;99.90
46340;DHT22;47273;49.274;8.708;2023-02-18T21:26:23;11.40;99.90
46340;DHT22;47273;49.274;8.708;2023-02-18T21:28:55;11.40;99.90
46340;DHT22;47273;49.274;8.708;2023-02-18T21:33:49;11.40;99.90
46340;DHT22;47273;49.274;8.708;2023-02-18T21:36:15;11.30;99.90
46340;DHT22;47273;49.274;8.708;2023-02-18T21:38:41;11.30;99.90
46340;DHT22;47273;49.274;8.708;2023-02-18T21:41:11;11.30;99.90
46340;DHT22;47273;49.274;8.708;2023-02-18T21:43:37;11.30;99.90
46340;DHT22;47273;49.274;8.708;2023-02-18T21:46:13;11.30;99.90
46340;DHT22;47273;49.274;8.708;2023-02-18T21:48:39;11.30;99.90
